KCFE

Buffalo Municipal Airport

Buffalo, Minnesota, USA
METAR KCFE 101535Z AUTO 23004KT 4SM BR OVC004 M07/M08 A3016 RMK AO2 T10751085
Observed Flight Rules
Dec-10 @ 15:35 UTC (9 minutes ago) Instrument Flight Rules
Wind Visibility Clouds Conditions
230° at 4 knots 4 miles
  • Overcast at 400' AGL
  • Mist
Temperatures Readings
Current -8°C / 18°F
Dewpoint -9°C / 16°F
Humidity 93%
Altimeter 30.16" Hg
Pressure 1021 hPa
Elevation 295
METAR KCFE 101535Z AUTO 23004KT 4SM BR OVC004 M07/M08 A3016 RMK AO2 T10751085
Observed Flight Rules
Dec-10 @ 15:35 UTC
(9 minutes ago)
LIFR
Wind Visibility
230° at 4 knots 4 miles
Clouds
  • Overcast at 400' AGL
Conditions
  • Mist
Temperature Dewpoint
-8°C / 18°F -9°C / 16°F
Humidity Altimeter Pressure
93% 30.16" Hg 1021 hPa